長春 の空港の天気 - METARとTAF

長春龍嘉国際空港 ( ZYCC / CGQ ) - 中国 吉林省長春市
飛行場実況気象(Metar)
観測時間07/20 19:00 CST (07/20 11:00 UTC)
風向・風速東 2m/s
視程10km以上
天気現象
なし
気温29℃
湿度66%
気圧1002hPa
METARZYCC 201100Z 09002MPS 070V140 CAVOK 29/22 Q1002 NOSIG
過去の天気等 Google飛行場航空写真 Wunderground天気予報

過去48時間のMETAR

飛行場予報(TAF)
発表時間: 7/20 11:08 CST (7/20 03:08 UTC)
予報対象時間: 20日14時 CST ~ 21日14時 CST
風向・風速南西 6m/s
視程7000m
全天の4割程度の雲 雲底高度 910m
TAF ZYCC 200308Z 2006/2106 22006MPS 7000 SCT030 TX32/2006Z TN22/2021Z